Drugi rajd w karierze startów w Rajdowych Samochodowych Mistrzostwach Świata wygrali Kris Meeke i Paul Nagle, jadący Citroenem DS3 WRC. Załoga ta miała przerwę w startach od Rajdu Szwecji.

Na drugim miejscu rajd ukończyli Andreas Mikkelsen i Anders Jaeger, którzy do zwycięzcy stracili 29,7 sekundy.  Liderzy Mistrzostw Świata Sebastien Ogier i Julien Ingrassia musieli zadowolić się najniższym stopniem podium. Do zespołowych kolegów stracili oni 4,8 sekundy.

Bonusowe punkty na Power Stage wywalczyli Sebastien Ogier, Jari-Matti Latvala (+1,2) i Andreas Mikkelsen (+2,0).

Trzecią wygraną rundę WRC2 na swoje konto zapisała załoga Pontu Tidemand i Emil Axelsson, która w klasyfikacji generalnej sklasyfikowana została na dziewiątej pozycji.

Polacy tym razem startowali z mniejszym szczęściem. Hubert Ptaszek i Maciej Szczepaniak zakończyli rywalizację na 17. OS po pechowym lądowaniu na słynnej hopie Fafe. Szczepaniak uszkodził kręgosłup i załoga nie była już w stanie kontynuować dalszej jazdy. W tym momencie zajmowali 21. miejsce.

W klasyfikacji sezonu Sebastien Ogier (114) wyprzedza Andreasa Mikkelsena (67), Madsa Ostberga (58), Haydena Paddona (57), Daniego Sordo (56) i Jari-Matti Latvalę (37). Kolejną rundą Rajdowych Samochodowych Mistrzostw Świata będzie w dniach 9-12 czerwca Rajd Sardynii.

Rajd Portugalii 2016 - wyniki

Poz. Kierowca / Pilot Samochód Poz. Czas OS Kary Łączny czas Strata do lidera Strata do poprz.
1 Meeke Kris / Nagle Paul Citroën DS3 WRC  RC1 1 03:59:01.0 03:59:01.0 00:00:00.0 00:00:00.0
2 Mikkelsen A. / Jaeger Anders Volkswagen Polo R WRC  RC1 2 03:59:30.7 03:59:30.7 00:00:29.7 00:00:29.7
3 Ogier S. / Ingrassia J. Volkswagen Polo R WRC  RC1 3 03:59:35.5 03:59:35.5 00:00:34.5 00:00:04.8
4 Sordo Dani / Martí Marc Hyundai i20 WRC  RC1 4 04:00:38.1 04:00:38.1 00:01:37.1 00:01:02.6
5 Camilli Eric / Veillas B. Ford Fiesta RS WRC  RC1 5 04:03:02.6 04:03:02.6 00:04:01.6 00:02:24.5
6 Latvala J. / Anttila Miikka Volkswagen Polo R WRC  RC1 6 04:02:57.9 00:00:10.0 04:03:07.9 00:04:06.9 00:00:05.3
7 Østberg Mads / Fløene Ola Ford Fiesta RS WRC  RC1 7 04:05:54.6 04:05:54.6 00:06:53.6 00:02:46.7
8 Prokop Martin / Tománek Jan Ford Fiesta RS WRC  RC1 8 04:09:25.1 04:09:25.1 00:10:24.1 00:03:30.5
9 Tidemand Pontus / Axelsson Emil Škoda Fabia R5  RC2 1 04:10:46.2 04:10:46.2 00:11:45.2 00:01:21.1
10 Fuchs Nicolás / Mussano F. Škoda Fabia R5  RC2 2 04:12:15.0 04:12:15.0 00:13:14.0 00:01:28.8
11 Al Rajhi Yazeed / Orr Michael Ford Fiesta RS WRC  RC1 9 04:12:53.9 04:12:53.9 00:13:52.9 00:00:38.9
12 Aasen Marius / Engan Veronica Ford Fiesta R5  RC2 3 04:13:55.9 00:00:10.0 04:14:05.9 00:15:04.9 00:01:12.0
13 Pedder Scott / Moscatt Dale Škoda Fabia R5  RC2 4 04:14:06.1 04:14:06.1 00:15:05.1 00:00:00.2
14 Campos Miguel / Magalhães C. Škoda Fabia R5  RC2 5 04:14:53.0 04:14:53.0 00:15:52.0 00:00:46.9
15 De Mévius G. / Jalet Johan Škoda Fabia R5  RC2 6 04:16:57.8 04:16:57.8 00:17:56.8 00:02:04.8
16 Bonato Yoann / Giraudet Denis Citroën DS3 R5  RC2 7 04:19:23.8 04:19:23.8 00:20:22.8 00:02:26.0
17 Al-Kuwari A. / Duffy Killian Škoda Fabia R5  RC2 8 04:20:35.8 04:20:35.8 00:21:34.8 00:01:12.0
18 Turán Frigyes / Zsiros Gábor Ford Fiesta R5  RC2 9 04:21:04.7 04:21:04.7 00:22:03.7 00:00:28.9
19 Kopecký Jan / Dresler Pavel Škoda Fabia R5  RC2 10 04:26:22.2 04:26:22.2 00:27:21.2 00:05:17.5
20 Al-Suwaidi K. / Clarke Marshall Ford Fiesta R5  RC2 11 04:26:34.5 00:00:10.0 04:26:44.5 00:27:43.5 00:00:22.3
21 Suárez J. / Carrera C. Peugeot 208 T16  RC2 12 04:22:53.0 00:04:30.0 04:27:23.0 00:28:22.0 00:00:38.5
22 Maurin Julien / Ural Olivier Škoda Fabia R5  RC2 13 04:29:55.8 00:00:10.0 04:30:05.8 00:31:04.8 00:02:42.8
23 Tempestini S. / Bernacchini G. Citroën DS3 R3T Max  RC3 1 04:29:35.7 00:00:40.0 04:30:15.7 00:31:14.7 00:00:09.9
24 Koči Martin / Kostka Lukáš Citroën DS3 R3T Max  RC3 2 04:30:52.0 04:30:52.0 00:31:51.0 00:00:36.3
25 Folb Terry / Le Floch Franck Citroën DS3 R3T Max  RC3 3 04:31:02.2 04:31:02.2 00:32:01.2 00:00:10.2
26 Al Qassimi K. / Patterson Chris Citroën DS3 WRC  RC1 10 04:31:48.2 04:31:48.2 00:32:47.2 00:00:46.0
27 Solberg Henning / Minor Ilka Ford Fiesta RS WRC  RC1 11 04:32:56.7 04:32:56.7 00:33:55.7 00:01:08.5
28 Andolfi Fabio / Fenoli Manuel Peugeot 208 R2  RC4 1 04:33:14.0 04:33:14.0 00:34:13.0 00:00:17.3
29 Neuville T. / Gilsoul Nicolas Hyundai i20 WRC  RC1 12 04:35:16.3 04:35:16.3 00:36:15.3 00:02:02.3
30 Evans Elfyn / Parry Craig Ford Fiesta R5  RC2 14 04:36:57.7 00:00:20.0 04:37:17.7 00:38:16.7 00:02:01.4
31 Pryce Osian / Furniss Dale Ford Fiesta R2T  RC4 2 04:37:35.6 04:37:35.6 00:38:34.6 00:00:17.9
32 Vatanen Max / Salva Thierry Ford Fiesta R2T  RC4 3 04:39:00.7 00:00:20.0 04:39:20.7 00:40:19.7 00:01:45.1
33 Dubert Vincent / Coria Alexandre Citroën DS3 R3T Max  RC3 4 04:39:59.3 00:01:00.0 04:40:59.3 00:41:58.3 00:01:38.6
34 De Tommaso D. / Rocca Paolo Peugeot 208 R2  RC4 4 04:41:32.8 00:00:10.0 04:41:42.8 00:42:41.8 00:00:43.5
35 Lefebvre S. / Moreau Gabin Citroën DS3 WRC  RC1 13 04:42:37.9 04:42:37.9 00:43:36.9 00:00:55.1
36 Burri Michaël / Levratti A. Renault Clio R3T  RC3 5 04:48:34.0 00:00:10.0 04:48:44.0 00:49:43.0 00:06:06.1
37 Bestard Augusto / Mendonca F. Ford Fiesta R5  RC2 15 04:46:51.0 00:03:40.0 04:50:31.0 00:51:30.0 00:01:47.0
38 Ciamin Nicolas / De La Haye T. Ford Fiesta R2T  RC4 5 04:53:36.1 04:53:36.1 00:54:35.1 00:03:05.1
39 Armstrong Jon / O’Sullivan N. Ford Fiesta R2T  RC4 6 04:53:59.9 04:53:59.9 00:54:58.9 00:00:23.8
40 Veiby O. / Skjaermoen S. Citroën DS3 R3T Max  RC3 6 04:55:25.3 04:55:25.3 00:56:24.3 00:01:25.4
41 Hauswald F. / Vilmot Maxime Citroën DS3 R3T Max  RC3 7 04:56:35.4 04:56:35.4 00:57:34.4 00:01:10.1
42 Martel Romain / Lemoine Vanessa Citroën DS3 R3T Max  RC3 8 04:57:25.5 00:00:10.0 04:57:35.5 00:58:34.5 00:01:00.1
43 Brazzoli Enrico / Barone Maurizio Peugeot 208 R2  RC4 7 05:02:47.5 05:02:47.5 01:03:46.5 00:05:12.0
44 Van Way Dillon / Edwards Andrew Ford Fiesta R2T  RC4 8 05:13:03.9 05:13:03.9 01:14:02.9 00:10:16.4
45 Suninen Teemu / Markkula Mikko Škoda Fabia R5  RC2 16 05:14:16.6 05:14:16.6 01:15:15.6 00:01:12.7
46 Ramos J. / Carvalho Jorge Mitsubishi Lancer Evo X  RC2 17 05:16:56.7 00:00:10.0 05:17:06.7 01:18:05.7 00:02:50.1
47 Al Mutawaa M. / McAuley Stephen Citroën DS3 R3T Max  RC3 9 05:20:59.7 05:20:59.7 01:21:58.7 00:03:53.0
48 Giusti Igor / Dini Gilbert Peugeot 208 R2  RC4 9 05:22:02.3 05:22:02.3 01:23:01.3 00:01:02.6
49 Diehl Ilo / Soneca Eduardo Ford Fiesta R5  RC2 18 05:24:37.6 00:00:30.0 05:25:07.6 01:26:06.6 00:03:05.3
50 van den Heuvel J. / Gillis Jac Mitsubishi Lancer Evo X  RC2 19 05:25:36.3 05:25:36.3 01:26:35.3 00:00:28.7
51 Crugnola Andrea / Ferrara Michele Citroën DS3 R3T Max  RC3 10 05:25:47.9 05:25:47.9 01:26:46.9 00:00:11.6
52 Brzeziński J. / Boba B. Ford Fiesta R2T  RC4 10 05:27:04.8 05:27:04.8 01:28:03.8 00:01:16.9
53 Rodrigues Pedro / Araújo Daniel Subaru Impreza STI  RC2 20 05:27:16.9 00:00:10.0 05:27:26.9 01:28:25.9 00:00:22.1
54 Guibert J. / Gracial Laurent Ford Fiesta R2  RC4 11 05:24:46.7 00:04:30.0 05:29:16.7 01:30:15.7 00:01:49.8
55 Solberg Oscar / Barth Patrik Ford Fiesta R2T  RC4 12 05:41:40.0 05:41:40.0 01:42:39.0 00:12:23.3
56 Sosa Gustavo / Peñate Rogelio Ford Fiesta R5  RC2 21 05:42:29.2 05:42:29.2 01:43:28.2 00:00:49.2
57 Mesquita Hugo / Ribeiro Jorge Citroën C2 R2  RC4 13 06:01:05.8 00:01:50.0 06:02:55.8 02:03:54.8 00:20:26.6
58 Pieniążek Ł. / Mazur P. Citroën DS3 R3T Max  RC3 11 06:08:30.1 06:08:30.1 02:09:29.1 00:05:34.3